Time;durP1;ratioP1;P1;durP2;ratioP2;P2;SDS_P1;SDS_P2;PMS_P1;PMS_P2;Temp;Humidity;BMP_temperature;BMP_pressure;BME280_temperature;BME280_humidity;BME280_pressure;Samples;Min_cycle;Max_cycle;Signal;HPM_P1;HPM_P2
2021/12/07 00:00:00;;;;;;;15.68;13.95;;;;;;;-0.75;100.00;95766.47;5044353;28;20439;-59
2021/12/07 00:02:26;;;;;;;15.52;12.65;;;;;;;-0.76;100.00;95779.47;5046535;28;20043;-59
2021/12/07 00:04:51;;;;;;;14.20;12.70;;;;;;;-0.79;100.00;95787.34;5047415;28;20034;-60
2021/12/07 00:07:17;;;;;;;14.85;13.35;;;;;;;-0.80;100.00;95794.28;5048974;28;20404;-60
2021/12/07 00:09:45;;;;;;;13.45;12.05;;;;;;;-0.78;100.00;95800.22;5050171;28;20048;-60
2021/12/07 00:12:12;;;;;;;14.25;12.65;;;;;;;-0.75;100.00;95796.66;5048037;28;20032;-60
2021/12/07 00:14:40;;;;;;;19.27;17.02;;;;;;;-0.75;100.00;95784.56;5046975;28;20573;-59
2021/12/07 00:17:06;;;;;;;15.98;14.38;;;;;;;-0.76;100.00;95806.16;5041746;28;20028;-60
2021/12/07 00:19:33;;;;;;;21.05;16.80;;;;;;;-0.75;100.00;95804.44;5049274;28;20044;-59
2021/12/07 00:21:59;;;;;;;21.30;18.83;;;;;;;-0.75;100.00;95804.44;5045437;28;20031;-60
2021/12/07 00:24:25;;;;;;;20.15;17.88;;;;;;;-0.74;100.00;95817.25;5048001;28;20411;-60
2021/12/07 00:26:50;;;;;;;20.35;17.38;;;;;;;-0.74;100.00;95812.09;5044246;28;20043;-59
2021/12/07 00:29:16;;;;;;;19.50;16.60;;;;;;;-0.73;100.00;95826.69;5048184;28;20024;-60
2021/12/07 00:31:51;;;;;;;21.77;16.70;;;;;;;-0.73;100.00;95825.88;5049007;28;20546;-60
2021/12/07 00:36:48;;;;;;;21.90;16.67;;;;;;;-0.76;100.00;95805.34;5046421;28;19949;-60
2021/12/07 00:39:16;;;;;;;19.85;16.73;;;;;;;-0.75;100.00;95814.75;5042999;28;20032;-59
2021/12/07 00:41:42;;;;;;;21.17;16.50;;;;;;;-0.73;100.00;95794.84;5044105;28;20024;-60
2021/12/07 00:44:08;;;;;;;20.05;17.95;;;;;;;-0.74;100.00;95795.75;5048743;28;20035;-60
2021/12/07 00:46:35;;;;;;;18.33;15.77;;;;;;;-0.77;100.00;95798.50;5043922;28;20115;-60
2021/12/07 00:49:01;;;;;;;18.02;15.50;;;;;;;-0.65;100.00;95791.91;5041808;28;20088;-60
2021/12/07 00:51:26;;;;;;;16.05;14.00;;;;;;;-0.74;100.00;95793.16;5042940;28;20056;-60
2021/12/07 00:53:52;;;;;;;18.42;16.52;;;;;;;-0.78;100.00;95807.13;5042841;28;20120;-59
2021/12/07 00:56:18;;;;;;;18.95;16.48;;;;;;;-0.81;100.00;95791.75;5036795;28;20111;-59
2021/12/07 00:58:44;;;;;;;21.58;16.40;;;;;;;-0.83;100.00;95780.66;5044860;28;20540;-60
2021/12/07 01:01:15;;;;;;;16.65;14.95;;;;;;;-0.83;100.00;95801.31;5036471;28;20070;-60
2021/12/07 01:03:41;;;;;;;17.42;15.65;;;;;;;-0.78;100.00;95794.19;5045437;28;20043;-59
2021/12/07 01:24:57;;;;;;;24.40;19.33;;;;;;;-0.90;100.00;95809.38;5048261;28;20227;-60
2021/12/07 01:27:23;;;;;;;21.83;19.48;;;;;;;-0.83;100.00;95822.00;5043571;28;20432;-59
2021/12/07 01:30:01;;;;;;;20.80;18.65;;;;;;;-0.85;100.00;95823.81;5043988;28;20051;-59
2021/12/07 01:50:41;;;;;;;21.02;19.10;;;;;;;-0.76;100.00;95831.19;5044193;28;20032;-59
2021/12/07 02:01:06;;;;;;;23.48;21.08;;;;;;;-0.74;100.00;95812.09;5048148;28;20021;-59
2021/12/07 02:03:31;;;;;;;18.85;15.98;;;;;;;-0.72;100.00;95812.03;5040861;28;20029;-59
2021/12/07 02:05:58;;;;;;;19.33;17.42;;;;;;;-0.68;100.00;95810.97;5048411;28;20039;-59
2021/12/07 02:08:23;;;;;;;20.27;18.38;;;;;;;-0.58;100.00;95809.63;5045981;28;20451;-59
2021/12/07 02:10:53;;;;;;;21.35;18.50;;;;;;;-0.73;100.00;95815.53;5048087;28;20086;-59
2021/12/07 02:15:56;;;;;;;21.67;19.42;;;;;;;-0.92;100.00;95834.44;5045563;28;20075;-59
2021/12/07 02:18:22;;;;;;;21.38;19.08;;;;;;;-0.96;100.00;95844.97;5043588;28;20041;-59
2021/12/07 02:20:48;;;;;;;27.98;23.42;;;;;;;-0.88;100.00;95850.69;5042777;28;20108;-59
2021/12/07 02:23:14;;;;;;;25.35;21.98;;;;;;;-0.93;100.00;95850.88;5037990;28;20117;-59
2021/12/07 02:25:40;;;;;;;22.13;19.75;;;;;;;-0.94;100.00;95838.84;5047116;28;20041;-59
2021/12/07 02:28:12;;;;;;;26.35;19.90;;;;;;;-0.94;100.00;95854.38;5047670;28;20064;-59
2021/12/07 02:30:37;;;;;;;21.77;19.45;;;;;;;-0.78;100.00;95875.19;5044435;28;20087;-59
2021/12/07 02:33:03;;;;;;;20.23;18.02;;;;;;;-0.87;100.00;95873.84;5042257;28;20033;-59
2021/12/07 02:35:28;;;;;;;18.42;16.50;;;;;;;-0.85;100.00;95885.88;5047272;28;20454;-59
2021/12/07 02:37:56;;;;;;;18.38;16.50;;;;;;;-0.88;100.00;95868.78;5041272;28;20025;-59
2021/12/07 02:40:22;;;;;;;18.00;16.10;;;;;;;-0.91;100.00;95868.88;5037319;28;20029;-59
2021/12/07 02:42:47;;;;;;;20.10;17.85;;;;;;;-0.88;100.00;95873.94;5045947;28;20043;-59
2021/12/07 02:45:13;;;;;;;18.58;16.63;;;;;;;-0.80;100.00;95873.56;5043267;28;20451;-59
2021/12/07 02:47:39;;;;;;;17.95;15.65;;;;;;;-0.82;100.00;95873.66;5045801;28;20142;-59
2021/12/07 02:50:06;;;;;;;16.30;14.80;;;;;;;-0.77;100.00;95866.53;5042788;28;20033;-59
2021/12/07 02:52:31;;;;;;;16.90;15.07;;;;;;;-0.82;100.00;95865.91;5048545;28;20040;-59
2021/12/07 02:54:57;;;;;;;15.90;14.30;;;;;;;-0.89;100.00;95873.09;5047256;28;20026;-59
2021/12/07 02:57:23;;;;;;;17.40;15.00;;;;;;;-0.92;100.00;95862.88;5043372;28;20049;-59
2021/12/07 02:59:58;;;;;;;16.20;14.50;;;;;;;-1.01;100.00;95871.88;5050310;28;20036;-59
2021/12/07 03:02:24;;;;;;;15.57;14.13;;;;;;;-1.08;100.00;95874.78;5051302;28;20032;-59
2021/12/07 03:05:02;;;;;;;16.85;15.18;;;;;;;-1.12;100.00;95870.66;5048514;28;20036;-59
2021/12/07 03:26:16;;;;;;;17.35;15.65;;;;;;;-1.04;100.00;95884.09;5045287;28;20421;-59
2021/12/07 03:28:47;;;;;;;18.50;15.80;;;;;;;-1.10;100.00;95892.09;5050420;28;20029;-59
2021/12/07 03:31:14;;;;;;;18.75;16.95;;;;;;;-1.04;100.00;95884.94;5049169;28;20056;-59
2021/12/07 03:33:40;;;;;;;18.92;17.08;;;;;;;-0.99;100.00;95887.34;5048234;28;20078;-59
2021/12/07 03:36:07;;;;;;;20.00;17.92;;;;;;;-1.04;100.00;95886.66;5046498;28;20028;-59
2021/12/07 03:38:33;;;;;;;19.67;17.70;;;;;;;-1.10;100.00;95885.22;5049995;28;20389;-60
2021/12/07 03:40:59;;;;;;;18.58;16.58;;;;;;;-0.92;100.00;95882.72;5049460;28;20031;-59
2021/12/07 03:43:24;;;;;;;19.13;17.23;;;;;;;-0.91;100.00;95880.06;5048176;28;20040;-59
2021/12/07 03:45:50;;;;;;;19.17;17.13;;;;;;;-0.97;100.00;95884.66;5049264;28;20032;-59
2021/12/07 03:48:16;;;;;;;21.42;17.23;;;;;;;-1.04;100.00;95902.16;5049761;28;20017;-59
2021/12/07 03:50:42;;;;;;;19.95;18.05;;;;;;;-1.12;100.00;95907.66;5050041;28;20029;-59
2021/12/07 03:53:08;;;;;;;20.40;18.38;;;;;;;-1.01;100.00;95904.63;5050234;28;20496;-60
2021/12/07 03:55:34;;;;;;;20.75;18.35;;;;;;;-1.06;100.00;95904.84;5050891;28;20044;-59
2021/12/07 03:58:00;;;;;;;18.67;16.67;;;;;;;-1.11;100.00;95914.50;5049413;28;20025;-59
2021/12/07 04:00:28;;;;;;;18.40;16.52;;;;;;;-1.16;100.00;95917.31;5050579;28;20032;-59
2021/12/07 04:02:54;;;;;;;18.95;16.92;;;;;;;-1.16;100.00;95913.88;5049718;28;20042;-59
2021/12/07 04:05:22;;;;;;;23.58;16.38;;;;;;;-1.19;100.00;95911.41;5050731;28;20472;-59
2021/12/07 04:07:49;;;;;;;18.02;16.02;;;;;;;-1.14;100.00;95922.41;5048365;28;20032;-59
2021/12/07 04:10:18;;;;;;;20.77;18.75;;;;;;;-1.13;100.00;95925.84;5050226;28;20458;-59
2021/12/07 04:12:44;;;;;;;19.35;17.45;;;;;;;-1.10;100.00;95928.28;5045259;28;20477;-59
2021/12/07 04:15:13;;;;;;;20.20;18.10;;;;;;;-1.14;100.00;95930.16;5043237;28;20112;-59
2021/12/07 04:17:39;;;;;;;21.00;18.65;;;;;;;-1.20;100.00;95926.09;5047203;28;20060;-60
2021/12/07 04:20:07;;;;;;;21.10;18.77;;;;;;;-1.24;100.00;95918.53;5043418;28;20056;-59
2021/12/07 04:22:33;;;;;;;20.65;18.45;;;;;;;-1.28;100.00;95933.31;5050036;28;20563;-60
2021/12/07 04:24:58;;;;;;;21.30;19.05;;;;;;;-1.27;100.00;95937.56;5049042;28;20048;-59
2021/12/07 04:27:24;;;;;;;21.92;18.13;;;;;;;-1.33;100.00;95930.94;5043176;28;20112;-59
2021/12/07 04:29:49;;;;;;;23.67;21.17;;;;;;;-1.34;100.00;95934.41;5049173;28;20021;-59
2021/12/07 04:32:15;;;;;;;24.80;22.25;;;;;;;-1.33;100.00;95940.41;5045677;28;20452;-59
2021/12/07 04:34:40;;;;;;;25.05;21.25;;;;;;;-1.32;100.00;95947.25;5049568;28;20029;-59
2021/12/07 04:37:06;;;;;;;24.98;21.98;;;;;;;-1.31;100.00;95946.34;5048664;28;20025;-59
2021/12/07 04:39:31;;;;;;;25.17;22.35;;;;;;;-1.34;100.00;95929.22;5049602;28;20562;-60
2021/12/07 04:41:57;;;;;;;24.05;21.45;;;;;;;-1.31;100.00;95939.47;5048076;28;20056;-59
2021/12/07 04:44:23;;;;;;;23.80;20.98;;;;;;;-1.28;100.00;95935.06;5049335;28;20035;-60
2021/12/07 05:00:10;;;;;;;26.40;23.05;;;;;;;-1.33;100.00;95933.53;5045586;28;20114;-59
2021/12/07 05:02:38;;;;;;;25.80;23.08;;;;;;;-1.38;100.00;95932.84;5048743;28;20074;-60
2021/12/07 05:05:04;;;;;;;25.33;22.63;;;;;;;-1.38;100.00;95935.44;5049507;28;20028;-59
2021/12/07 05:07:37;;;;;;;26.55;23.80;;;;;;;-1.39;100.00;95928.59;5049065;28;20033;-59
2021/12/07 05:12:45;;;;;;;26.38;22.55;;;;;;;-1.28;100.00;95925.56;5048601;28;20059;-59
2021/12/07 05:15:25;;;;;;;25.00;22.42;;;;;;;-1.27;100.00;95924.66;5048974;28;20021;-59
2021/12/07 05:18:06;;;;;;;24.70;22.27;;;;;;;-1.33;100.00;95943.00;5045946;28;20153;-59
2021/12/07 05:39:50;;;;;;;26.05;23.38;;;;;;;-1.38;100.00;95926.84;5049236;28;20063;-59
2021/12/07 05:42:16;;;;;;;27.90;24.77;;;;;;;-1.31;100.00;95923.09;5046895;28;20025;-59
2021/12/07 05:44:42;;;;;;;31.27;27.98;;;;;;;-1.34;100.00;95923.25;5029525;28;20026;-58
2021/12/07 05:47:08;;;;;;;29.30;26.13;;;;;;;-1.31;100.00;95928.28;5045475;28;20020;-59
2021/12/07 05:49:34;;;;;;;28.98;24.77;;;;;;;-1.32;100.00;95930.03;5047856;28;20029;-59
2021/12/07 05:52:00;;;;;;;29.48;26.38;;;;;;;-1.31;100.00;95923.09;5048986;28;20124;-59
2021/12/07 05:54:25;;;;;;;30.00;27.00;;;;;;;-1.35;100.00;95927.56;5048888;28;20104;-58
2021/12/07 05:56:51;;;;;;;31.83;28.50;;;;;;;-1.36;100.00;95922.47;5048902;28;20025;-59
2021/12/07 05:59:17;;;;;;;27.77;24.80;;;;;;;-1.33;100.00;95918.03;5038948;28;20104;-59
2021/12/07 06:01:42;;;;;;;31.48;27.02;;;;;;;-1.33;100.00;95930.94;5049438;28;20025;-59
2021/12/07 06:04:08;;;;;;;29.10;26.02;;;;;;;-1.39;100.00;95928.59;5048754;28;20032;-58
2021/12/07 06:06:33;;;;;;;28.23;25.33;;;;;;;-1.37;100.00;95920.78;5048960;28;20122;-58
2021/12/07 06:08:59;;;;;;;26.48;23.85;;;;;;;-1.42;100.00;95926.13;5047992;28;20037;-59
2021/12/07 06:11:24;;;;;;;28.75;25.40;;;;;;;-1.41;100.00;95927.00;5048463;28;20033;-59
2021/12/07 06:13:51;;;;;;;27.23;24.42;;;;;;;-1.41;100.00;95916.66;5049298;28;20048;-59
2021/12/07 06:16:16;;;;;;;25.75;23.15;;;;;;;-1.41;100.00;95916.66;5048524;28;20103;-59
2021/12/07 06:18:43;;;;;;;24.33;21.77;;;;;;;-1.47;100.00;95913.41;5048943;28;20623;-58
2021/12/07 06:21:10;;;;;;;24.02;21.23;;;;;;;-1.50;100.00;95923.03;5047783;28;20021;-58
2021/12/07 06:23:35;;;;;;;22.23;20.08;;;;;;;-1.43;100.00;95921.06;5044764;28;20108;-59
2021/12/07 06:26:02;;;;;;;25.95;23.25;;;;;;;-1.26;100.00;95917.75;5051894;28;20053;-59
2021/12/07 06:28:27;;;;;;;39.95;33.88;;;;;;;-1.04;100.00;95920.25;5048015;28;20052;-59
2021/12/07 06:30:53;;;;;;;47.15;35.15;;;;;;;-1.31;100.00;95923.97;5049884;28;20400;-58
2021/12/07 06:33:20;;;;;;;36.25;29.88;;;;;;;-1.46;100.00;95919.41;5049510;28;20028;-58
2021/12/07 06:35:49;;;;;;;45.70;36.00;;;;;;;-1.56;100.00;95923.25;5049163;28;20024;-58
2021/12/07 06:38:17;;;;;;;47.53;36.50;;;;;;;-1.63;100.00;95926.09;5049761;28;20060;-59
2021/12/07 06:40:43;;;;;;;40.53;34.15;;;;;;;-1.36;100.00;95928.47;5050674;28;20013;-59
2021/12/07 06:43:09;;;;;;;29.92;26.83;;;;;;;-1.56;100.00;95924.13;5047040;28;20028;-59
2021/12/07 06:45:34;;;;;;;38.33;32.03;;;;;;;-1.63;100.00;95923.50;5048228;28;20044;-58
2021/12/07 06:48:00;;;;;;;33.17;29.35;;;;;;;-1.66;100.00;95915.91;5050187;28;20036;-59
2021/12/07 06:50:26;;;;;;;41.65;33.92;;;;;;;-1.70;100.00;95918.66;5051625;28;20029;-59
2021/12/07 06:52:52;;;;;;;37.30;30.98;;;;;;;-1.66;100.00;95917.63;5050546;28;20025;-63
2021/12/07 06:55:17;;;;;;;33.13;29.73;;;;;;;-1.66;100.00;95925.38;5052029;28;20477;-61
2021/12/07 06:57:43;;;;;;;40.65;32.97;;;;;;;-1.49;100.00;95929.88;5051210;28;20060;-62
2021/12/07 07:00:10;;;;;;;34.28;29.48;;;;;;;-1.58;100.00;95934.50;5047544;28;20082;-61
2021/12/07 07:02:36;;;;;;;38.40;32.65;;;;;;;-1.64;100.00;95932.16;5049300;28;20075;-64
2021/12/07 07:05:02;;;;;;;37.45;30.65;;;;;;;-1.69;100.00;95938.41;5049639;28;20021;-60
2021/12/07 07:07:27;;;;;;;36.13;31.38;;;;;;;-1.76;100.00;95930.91;5050331;28;20032;-59
2021/12/07 07:09:53;;;;;;;38.08;34.05;;;;;;;-1.81;100.00;95930.25;5049980;28;20020;-60
2021/12/07 07:12:18;;;;;;;45.15;37.15;;;;;;;-1.82;100.00;95933.75;5050340;28;20025;-60
2021/12/07 07:14:45;;;;;;;38.08;33.97;;;;;;;-1.79;100.00;95936.19;5050820;28;20029;-61
2021/12/07 07:17:11;;;;;;;42.97;35.85;;;;;;;-1.73;100.00;95928.22;5051592;28;20032;-59
2021/12/07 07:19:37;;;;;;;37.13;31.20;;;;;;;-1.52;100.00;95930.84;5051228;28;20029;-59
2021/12/07 07:22:03;;;;;;;38.90;33.40;;;;;;;-1.33;100.00;95930.09;5041847;28;20037;-59
2021/12/07 07:24:32;;;;;;;43.00;32.20;;;;;;;-1.44;100.00;95925.34;5034411;28;20042;-59
2021/12/07 07:26:59;;;;;;;74.03;29.23;;;;;;;-1.47;100.00;95915.97;5034530;28;20033;-59
2021/12/07 07:29:25;;;;;;;52.55;27.88;;;;;;;-1.28;100.00;95919.56;5043699;28;20100;-59
2021/12/07 07:31:51;;;;;;;67.28;28.55;;;;;;;-1.25;100.00;95909.09;5048366;28;20100;-59
2021/12/07 07:34:16;;;;;;;54.28;31.58;;;;;;;-1.37;100.00;95907.88;5043161;28;20506;-59
2021/12/07 07:36:41;;;;;;;39.13;27.35;;;;;;;-1.33;100.00;95896.50;5049357;28;20072;-59
2021/12/07 07:39:07;;;;;;;41.30;29.85;;;;;;;-1.26;100.00;95899.69;5047988;28;20017;-59
2021/12/07 07:41:33;;;;;;;49.25;29.42;;;;;;;-1.33;100.00;95896.50;5049987;28;20403;-59
2021/12/07 07:43:59;;;;;;;49.05;32.00;;;;;;;-1.32;100.00;95901.63;5047050;28;20502;-60
2021/12/07 07:46:24;;;;;;;50.08;30.63;;;;;;;-1.32;100.00;95904.19;5049314;28;20040;-59
2021/12/07 07:48:50;;;;;;;74.00;29.77;;;;;;;-1.36;100.00;95905.22;5047902;28;20108;-60
2021/12/07 07:51:15;;;;;;;42.92;31.17;;;;;;;-1.39;100.00;95899.34;5043273;28;20059;-60
2021/12/07 07:53:41;;;;;;;76.93;31.63;;;;;;;-1.25;100.00;95904.75;5048115;28;20017;-60
2021/12/07 07:56:07;;;;;;;46.30;32.75;;;;;;;-1.34;100.00;95912.91;5047915;28;20028;-59
2021/12/07 07:58:33;;;;;;;44.95;32.67;;;;;;;-1.44;100.00;95902.13;5046832;28;20025;-59
2021/12/07 08:00:58;;;;;;;78.40;37.70;;;;;;;-1.53;100.00;95913.66;5046897;28;20028;-59
2021/12/07 08:03:24;;;;;;;81.80;35.42;;;;;;;-1.38;100.00;95912.19;5047188;28;20078;-59
2021/12/07 08:05:49;;;;;;;80.65;31.92;;;;;;;-1.40;100.00;95908.00;5047986;28;20021;-60
2021/12/07 08:08:15;;;;;;;86.65;28.20;;;;;;;-1.33;100.00;95915.44;5041570;28;20447;-59
2021/12/07 08:10:41;;;;;;;61.08;28.48;;;;;;;-1.33;100.00;95919.75;5047301;28;20116;-60
2021/12/07 08:13:08;;;;;;;73.05;32.00;;;;;;;-1.41;100.00;95907.16;5050183;28;20055;-59
2021/12/07 08:15:41;;;;;;;50.90;29.42;;;;;;;-1.40;100.00;95915.75;5046567;28;20029;-60
2021/12/07 08:18:06;;;;;;;54.55;33.17;;;;;;;-1.46;100.00;95914.25;5050172;28;20029;-60
2021/12/07 08:20:32;;;;;;;48.50;26.58;;;;;;;-1.37;100.00;95902.72;5049901;28;20047;-60
2021/12/07 08:22:58;;;;;;;49.40;27.55;;;;;;;-1.36;100.00;95912.13;5048836;28;20060;-60
2021/12/07 08:25:24;;;;;;;39.60;27.52;;;;;;;-1.38;100.00;95907.03;5047376;28;20048;-60
2021/12/07 08:27:50;;;;;;;49.15;27.27;;;;;;;-1.30;100.00;95917.91;5050109;28;20114;-60
2021/12/07 08:30:16;;;;;;;70.70;26.00;;;;;;;-1.30;100.00;95912.72;5045835;28;20053;-60
2021/12/07 08:32:45;;;;;;;59.47;25.20;;;;;;;-1.24;100.00;95908.19;5050327;28;20032;-59
2021/12/07 08:35:18;;;;;;;71.95;23.60;;;;;;;-1.30;100.00;95909.28;5050118;28;20110;-60
2021/12/07 08:37:44;;;;;;;46.80;23.05;;;;;;;-1.23;100.00;95910.69;5036875;28;20435;-59
2021/12/07 08:40:11;;;;;;;48.65;23.20;;;;;;;-1.32;100.00;95908.50;5049948;28;20064;-59
2021/12/07 08:42:37;;;;;;;44.78;25.15;;;;;;;-1.27;100.00;95910.91;5047881;28;20021;-59
2021/12/07 08:45:04;;;;;;;75.20;27.05;;;;;;;-1.33;100.00;95912.00;5041963;28;20380;-59
2021/12/07 08:47:30;;;;;;;57.13;26.60;;;;;;;-1.41;100.00;95888.25;5042334;28;20072;-59
2021/12/07 08:49:57;;;;;;;61.38;25.67;;;;;;;-1.45;100.00;95900.44;5043409;28;20024;-59
2021/12/07 08:52:23;;;;;;;45.13;25.38;;;;;;;-1.47;100.00;95892.75;5048875;28;20407;-59
2021/12/07 08:59:58;;;;;;;33.53;26.50;;;;;;;-1.68;100.00;95885.88;5047009;28;20083;-60
2021/12/07 09:02:25;;;;;;;70.10;25.58;;;;;;;-1.62;100.00;95883.06;5046651;28;20547;-60
2021/12/07 09:04:55;;;;;;;48.08;24.67;;;;;;;-1.60;100.00;95881.25;5046251;28;20027;-60
2021/12/07 09:07:23;;;;;;;50.50;23.42;;;;;;;-1.77;100.00;95877.59;5048197;28;20050;-60
2021/12/07 09:09:49;;;;;;;40.15;24.30;;;;;;;-1.84;100.00;95875.31;5047551;28;20079;-60
2021/12/07 09:12:17;;;;;;;36.55;26.17;;;;;;;-1.77;100.00;95869.88;5044383;28;20017;-59
2021/12/07 09:14:43;;;;;;;40.08;24.48;;;;;;;-1.71;100.00;95863.63;5039761;28;20171;-60
2021/12/07 09:17:11;;;;;;;33.80;23.40;;;;;;;-1.66;100.00;95860.81;5044058;28;20024;-59
2021/12/07 09:19:36;;;;;;;31.58;23.33;;;;;;;-1.54;100.00;95847.41;5040608;28;20028;-60
2021/12/07 09:22:03;;;;;;;35.05;26.25;;;;;;;-1.48;100.00;95854.91;5050410;28;20033;-59
2021/12/07 09:24:28;;;;;;;46.63;25.60;;;;;;;-1.31;100.00;95837.84;5047413;28;20072;-60
2021/12/07 09:26:54;;;;;;;30.10;24.15;;;;;;;-1.14;100.00;95831.97;5048280;28;20549;-59
2021/12/07 09:29:19;;;;;;;32.42;23.02;;;;;;;-0.92;100.00;95820.66;5050812;28;20025;-59
2021/12/07 09:31:46;;;;;;;27.70;21.80;;;;;;;-0.83;100.00;95814.25;5042186;28;20399;-60
2021/12/07 09:34:12;;;;;;;31.02;23.60;;;;;;;-0.75;100.00;95804.44;5045334;28;20024;-59
2021/12/07 09:36:40;;;;;;;34.88;23.50;;;;;;;-0.64;100.00;95809.94;5050636;28;20025;-59
2021/12/07 09:39:07;;;;;;;29.05;23.42;;;;;;;-0.48;100.00;95801.47;5052101;28;20027;-60
2021/12/07 09:41:34;;;;;;;34.47;25.58;;;;;;;-0.33;100.00;95793.00;5045660;28;20045;-60
2021/12/07 09:44:01;;;;;;;27.00;22.70;;;;;;;-0.27;100.00;95797.03;5045723;28;20075;-59
2021/12/07 09:46:27;;;;;;;37.67;21.75;;;;;;;-0.33;100.00;95795.59;5045833;28;20122;-59
2021/12/07 09:48:52;;;;;;;32.47;20.23;;;;;;;-0.26;100.00;95797.88;5045259;28;21513;-59
2021/12/07 09:51:20;;;;;;;44.00;20.33;;;;;;;-0.34;100.00;95793.06;5045107;28;20033;-60
2021/12/07 09:53:48;;;;;;;21.55;18.67;;;;;;;-0.39;100.00;95795.84;5051224;28;20029;-60
2021/12/07 09:56:14;;;;;;;22.52;19.58;;;;;;;-0.21;100.00;95795.91;5050753;28;20500;-60
2021/12/07 09:58:40;;;;;;;22.23;17.98;;;;;;;0.02;100.00;95796.53;5052544;28;20025;-59
2021/12/07 10:01:07;;;;;;;42.75;31.42;;;;;;;0.19;100.00;95799.16;5050095;28;20036;-59
2021/12/07 10:03:32;;;;;;;33.90;23.75;;;;;;;0.49;100.00;95789.91;5045674;28;20029;-60
2021/12/07 10:05:58;;;;;;;19.80;17.73;;;;;;;0.73;100.00;95781.81;5047683;28;20511;-59
2021/12/07 10:08:23;;;;;;;17.20;15.35;;;;;;;0.97;99.37;95777.94;5049573;28;20040;-60
2021/12/07 10:10:55;;;;;;;18.02;16.13;;;;;;;1.08;98.35;95776.50;5052265;28;20453;-60
2021/12/07 10:13:27;;;;;;;16.10;14.48;;;;;;;1.11;98.04;95779.78;5046185;28;20014;-60
2021/12/07 10:15:53;;;;;;;16.10;13.90;;;;;;;1.08;97.42;95769.59;5052260;28;20021;-60
2021/12/07 10:18:26;;;;;;;21.27;17.70;;;;;;;1.16;97.46;95766.59;5039835;28;20033;-60
2021/12/07 10:20:55;;;;;;;22.15;19.98;;;;;;;1.25;97.28;95760.06;5056684;28;20562;-60
2021/12/07 10:23:26;;;;;;;14.23;12.82;;;;;;;1.22;96.62;95755.06;5051057;28;20029;-60
2021/12/07 10:26:12;;;;;;;12.40;11.15;;;;;;;1.42;96.36;95754.78;5051388;28;20045;-60
2021/12/07 10:28:46;;;;;;;9.35;8.35;;;;;;;1.74;94.58;95737.50;5034028;28;20408;-60
2021/12/07 10:31:33;;;;;;;9.55;8.65;;;;;;;1.95;94.53;95725.91;5043429;28;20107;-60
2021/12/07 10:34:00;;;;;;;11.00;10.00;;;;;;;2.15;93.33;95710.94;5054076;28;20103;-60
2021/12/07 10:36:47;;;;;;;9.55;8.70;;;;;;;2.30;93.08;95696.19;5045266;28;20091;-60
2021/12/07 10:39:14;;;;;;;9.93;8.55;;;;;;;2.40;92.55;95692.13;5055410;28;20044;-60
2021/12/07 10:41:43;;;;;;;10.43;9.43;;;;;;;2.65;91.97;95682.88;5044726;28;20025;-60
2021/12/07 10:44:13;;;;;;;10.93;9.93;;;;;;;2.83;90.51;95678.28;5044206;28;20033;-60
2021/12/07 10:46:58;;;;;;;12.68;10.68;;;;;;;3.05;90.02;95673.50;5041428;28;20484;-60
2021/12/07 10:49:27;;;;;;;7.97;7.25;;;;;;;3.26;87.22;95674.75;5045790;28;20500;-60
2021/12/07 10:51:55;;;;;;;9.15;8.32;;;;;;;3.58;86.49;95661.47;5058106;28;20027;-60
2021/12/07 10:54:23;;;;;;;9.38;8.43;;;;;;;3.63;84.84;95661.13;5046912;28;20029;-59
2021/12/07 10:56:50;;;;;;;9.30;8.30;;;;;;;3.53;83.77;95653.09;5051531;28;20526;-59
2021/12/07 10:59:16;;;;;;;8.77;7.97;;;;;;;3.16;85.34;95660.69;5047707;28;20029;-61
2021/12/07 11:01:44;;;;;;;9.65;8.05;;;;;;;2.95;87.29;95657.63;5050165;28;20078;-59
2021/12/07 11:04:30;;;;;;;10.75;8.82;;;;;;;2.83;88.75;95649.69;5045512;28;20056;-60
2021/12/07 11:07:13;;;;;;;;;;;;;;;2.86;87.34;95651.25;5053396;28;20431;-60
2021/12/07 11:10:12;;;;;;;8.00;6.47;;;;;;;2.92;89.34;95626.63;5042561;28;19928;-60
2021/12/07 11:13:35;;;;;;;7.13;6.38;;;;;;;3.21;88.03;95616.16;5043792;28;20029;-61
2021/12/07 11:15:31;;;;;;;6.90;5.63;;;;;;;3.55;85.54;95614.81;5051392;28;20110;-59
2021/12/07 11:18:01;;;;;;;7.50;6.70;;;;;;;3.66;83.78;95601.09;5047673;28;20029;-60
2021/12/07 11:20:28;;;;;;;6.85;5.82;;;;;;;3.82;84.33;95589.63;5050844;28;20025;-60
2021/12/07 11:22:58;;;;;;;5.78;5.28;;;;;;;3.93;83.36;95581.94;5045392;28;20102;-59
2021/12/07 11:25:53;;;;;;;6.03;5.43;;;;;;;3.89;81.86;95569.22;5057047;28;20052;-58
2021/12/07 11:31:14;;;;;;;6.40;5.60;;;;;;;4.01;80.88;95555.38;5053426;28;20098;-59
2021/12/07 11:33:39;;;;;;;7.68;5.57;;;;;;;4.17;81.13;95565.56;5053936;28;20036;-58
2021/12/07 11:36:26;;;;;;;4.20;3.90;;;;;;;4.00;80.71;95546.69;5045567;28;20033;-59
2021/12/07 11:38:52;;;;;;;5.28;4.15;;;;;;;4.09;80.60;95536.56;5047229;28;20025;-60
2021/12/07 11:41:31;;;;;;;5.35;4.72;;;;;;;4.14;81.63;95535.31;5052957;28;20056;-58
2021/12/07 11:44:04;;;;;;;6.68;5.15;;;;;;;4.16;81.34;95533.44;5050397;28;20082;-59
2021/12/07 11:46:33;;;;;;;4.97;4.57;;;;;;;4.17;81.77;95531.69;5051376;28;20056;-59
2021/12/07 11:49:17;;;;;;;6.38;5.25;;;;;;;4.11;80.32;95532.13;5051229;28;20032;-58
2021/12/07 11:51:45;;;;;;;6.60;6.00;;;;;;;3.87;82.08;95530.25;5048261;28;20454;-58
2021/12/07 11:54:14;;;;;;;7.18;5.72;;;;;;;3.77;83.90;95524.84;5047659;28;20025;-59
2021/12/07 11:56:41;;;;;;;5.88;5.00;;;;;;;3.80;83.85;95532.44;5051757;28;20058;-58
2021/12/07 11:59:07;;;;;;;4.90;4.50;;;;;;;4.02;83.18;95523.16;5060687;28;20095;-59
2021/12/07 12:01:33;;;;;;;4.75;4.25;;;;;;;4.15;81.44;95515.34;5084100;28;20479;-59
2021/12/07 12:04:00;;;;;;;4.85;4.50;;;;;;;3.83;82.96;95506.19;5083086;28;20036;-58
2021/12/07 12:06:25;;;;;;;4.40;4.07;;;;;;;3.79;83.41;95511.69;5078682;28;20035;-59
2021/12/07 12:08:52;;;;;;;4.90;4.55;;;;;;;3.64;83.71;95511.78;5074297;28;20024;-58
2021/12/07 12:11:26;;;;;;;8.07;7.38;;;;;;;3.49;85.27;95502.44;5073039;28;20403;-59
2021/12/07 12:14:26;;;;;;;8.13;7.43;;;;;;;3.54;85.33;95502.97;5077285;28;20074;-58
2021/12/07 12:17:03;;;;;;;10.60;9.70;;;;;;;3.21;87.15;95502.50;5069816;28;20052;-58
2021/12/07 12:19:49;;;;;;;9.88;8.98;;;;;;;3.14;88.81;95494.25;5073363;28;20019;-59
2021/12/07 12:22:29;;;;;;;12.13;10.93;;;;;;;3.37;87.63;95488.47;5078054;28;20044;-59
2021/12/07 12:24:59;;;;;;;10.55;9.60;;;;;;;3.47;88.13;95486.91;5074802;28;20051;-59
2021/12/07 12:27:30;;;;;;;12.98;11.75;;;;;;;3.26;88.58;95490.00;5076138;28;20028;-59
2021/12/07 12:29:57;;;;;;;11.65;10.60;;;;;;;3.13;89.56;95474.38;5082415;28;20511;-58
2021/12/07 12:32:28;;;;;;;13.15;11.70;;;;;;;3.07;89.71;95461.78;5082123;28;20040;-58
2021/12/07 12:34:55;;;;;;;13.50;12.10;;;;;;;2.96;90.97;95459.03;5074389;28;20024;-58
2021/12/07 12:37:28;;;;;;;12.55;10.65;;;;;;;3.00;91.76;95463.97;5076802;28;20016;-58
2021/12/07 12:39:53;;;;;;;13.20;11.90;;;;;;;3.15;91.82;95445.69;5072541;28;20028;-57
2021/12/07 12:42:43;;;;;;;11.15;9.50;;;;;;;3.34;91.05;95429.66;5078842;28;20079;-58
2021/12/07 12:45:29;;;;;;;9.82;8.38;;;;;;;3.49;90.69;95421.75;5068414;28;20040;-59
2021/12/07 12:47:57;;;;;;;6.95;6.40;;;;;;;3.47;88.25;95414.03;5071036;28;20034;-58
2021/12/07 12:50:30;;;;;;;8.10;7.32;;;;;;;3.38;89.04;95410.28;5073784;28;20499;-58
2021/12/07 12:53:12;;;;;;;8.55;7.75;;;;;;;3.29;89.25;95401.31;5078938;28;20369;-58
2021/12/07 12:55:46;;;;;;;8.27;7.22;;;;;;;3.63;89.04;95405.19;5079365;28;20025;-58
2021/12/07 12:58:30;;;;;;;8.98;8.15;;;;;;;3.41;88.57;95414.47;5074937;28;20066;-58
2021/12/07 13:01:05;;;;;;;10.25;7.97;;;;;;;3.41;89.62;95411.84;5072133;28;20029;-59
2021/12/07 13:03:43;;;;;;;13.52;11.13;;;;;;;3.32;89.35;95408.09;5072876;28;20168;-58
2021/12/07 13:06:15;;;;;;;8.25;7.22;;;;;;;3.32;89.42;95405.50;5079058;28;20383;-59
2021/12/07 13:08:56;;;;;;;8.45;7.65;;;;;;;3.26;89.71;95395.53;5077834;28;20032;-59
2021/12/07 13:11:41;;;;;;;8.32;7.50;;;;;;;3.27;89.45;95386.78;5076255;28;20019;-59
2021/12/07 13:14:27;;;;;;;10.05;8.27;;;;;;;3.17;90.74;95383.13;5076766;28;20028;-59